sensor_id;sensor_type;location;lat;lon;timestamp;pressure;altitude;pressure_sealevel;temperature;humidity
35121;BME280;21297;52.008;4.576;2024-03-02T00:02:20;45777.28;;;-143.47;100.00
35121;BME280;21297;52.008;4.576;2024-03-02T00:05:06;45808.72;;;-143.47;100.00
35121;BME280;21297;52.008;4.576;2024-03-02T00:07:53;45895.19;;;-143.47;100.00
35121;BME280;21297;52.008;4.576;2024-03-02T00:10:39;46013.06;;;-143.47;100.00
35121;BME280;21297;52.008;4.576;2024-03-02T00:13:25;46140.81;;;-143.47;100.00
35121;BME280;21297;52.008;4.576;2024-03-02T00:16:11;46111.31;;;-143.47;100.00
35121;BME280;21297;52.008;4.576;2024-03-02T00:18:56;46107.41;;;-143.47;100.00
35121;BME280;21297;52.008;4.576;2024-03-02T00:21:46;46170.28;;;-143.47;100.00
35121;BME280;21297;52.008;4.576;2024-03-02T00:24:32;46162.41;;;-143.47;100.00
35121;BME280;21297;52.008;4.576;2024-03-02T00:27:19;46083.81;;;-143.47;100.00
35121;BME280;21297;52.008;4.576;2024-03-02T00:30:06;45981.63;;;-143.47;100.00
35121;BME280;21297;52.008;4.576;2024-03-02T00:33:10;46013.06;;;-143.47;100.00
35121;BME280;21297;52.008;4.576;2024-03-02T00:35:56;45985.56;;;-143.47;100.00
35121;BME280;21297;52.008;4.576;2024-03-02T00:38:46;45887.31;;;-143.47;100.00
35121;BME280;21297;52.008;4.576;2024-03-02T00:41:31;45855.88;;;-143.47;100.00
35121;BME280;21297;52.008;4.576;2024-03-02T00:44:17;45855.88;;;-143.47;100.00
35121;BME280;21297;52.008;4.576;2024-03-02T00:47:04;45985.56;;;-143.47;100.00
35121;BME280;21297;52.008;4.576;2024-03-02T00:49:50;45895.19;;;-143.47;100.00
35121;BME280;21297;52.008;4.576;2024-03-02T00:52:35;45826.41;;;-143.47;100.00
35121;BME280;21297;52.008;4.576;2024-03-02T00:55:21;45769.44;;;-143.47;100.00
35121;BME280;21297;52.008;4.576;2024-03-02T00:58:06;45773.34;;;-143.47;100.00
35121;BME280;21297;52.008;4.576;2024-03-02T01:00:52;45657.44;;;-143.47;100.00
35121;BME280;21297;52.008;4.576;2024-03-02T01:03:37;45649.56;;;-143.47;100.00
35121;BME280;21297;52.008;4.576;2024-03-02T01:06:23;45580.81;;;-143.47;100.00
35121;BME280;21297;52.008;4.576;2024-03-02T01:09:09;45600.47;;;-143.47;100.00
35121;BME280;21297;52.008;4.576;2024-03-02T01:11:55;45557.22;;;-143.47;100.00
35121;BME280;21297;52.008;4.576;2024-03-02T01:14:40;45431.50;;;-143.47;99.56
35121;BME280;21297;52.008;4.576;2024-03-02T01:17:26;45407.91;;;-143.47;98.97
35121;BME280;21297;52.008;4.576;2024-03-02T01:20:11;45396.13;;;-143.47;97.92
35121;BME280;21297;52.008;4.576;2024-03-02T01:22:57;45311.66;;;-143.47;97.29
35121;BME280;21297;52.008;4.576;2024-03-02T01:25:42;45293.97;;;-143.47;96.59
35121;BME280;21297;52.008;4.576;2024-03-02T01:28:28;45356.84;;;-143.47;97.94
35121;BME280;21297;52.008;4.576;2024-03-02T01:31:14;45407.91;;;-143.47;98.84
35121;BME280;21297;52.008;4.576;2024-03-02T01:33:59;45468.81;;;-143.47;99.46
35121;BME280;21297;52.008;4.576;2024-03-02T01:36:45;45529.72;;;-143.47;100.00
35121;BME280;21297;52.008;4.576;2024-03-02T01:39:30;45512.03;;;-143.47;100.00
35121;BME280;21297;52.008;4.576;2024-03-02T01:42:16;45437.38;;;-143.47;99.71
35121;BME280;21297;52.008;4.576;2024-03-02T01:45:02;45453.09;;;-143.47;99.85
35121;BME280;21297;52.008;4.576;2024-03-02T01:47:47;45535.63;;;-143.47;100.00
35121;BME280;21297;52.008;4.576;2024-03-02T01:50:33;45368.63;;;-143.47;98.69
35121;BME280;21297;52.008;4.576;2024-03-02T01:53:19;45366.66;;;-143.47;97.39
35121;BME280;21297;52.008;4.576;2024-03-02T01:56:04;45368.63;;;-143.47;98.05
35121;BME280;21297;52.008;4.576;2024-03-02T01:58:50;45360.75;;;-143.47;97.98
35121;BME280;21297;52.008;4.576;2024-03-02T02:01:36;45358.78;;;-143.47;98.03
35121;BME280;21297;52.008;4.576;2024-03-02T02:04:21;45384.34;;;-143.47;98.52
35121;BME280;21297;52.008;4.576;2024-03-02T02:07:12;45348.97;;;-143.47;97.74
35121;BME280;21297;52.008;4.576;2024-03-02T02:09:59;45464.88;;;-143.47;99.59
35121;BME280;21297;52.008;4.576;2024-03-02T02:12:45;45407.91;;;-143.47;99.13
35121;BME280;21297;52.008;4.576;2024-03-02T02:15:30;45398.09;;;-143.47;98.82
35121;BME280;21297;52.008;4.576;2024-03-02T02:18:16;45464.88;;;-143.47;99.46
35121;BME280;21297;52.008;4.576;2024-03-02T02:21:02;45403.97;;;-143.47;99.42
35121;BME280;21297;52.008;4.576;2024-03-02T02:23:48;45457.03;;;-143.47;99.51
35121;BME280;21297;52.008;4.576;2024-03-02T02:26:33;45386.31;;;-143.47;98.43
35121;BME280;21297;52.008;4.576;2024-03-02T02:29:19;45423.63;;;-143.47;99.10
35121;BME280;21297;52.008;4.576;2024-03-02T02:32:05;45335.22;;;-143.47;97.93
35121;BME280;21297;52.008;4.576;2024-03-02T02:34:53;45356.84;;;-143.47;98.39
35121;BME280;21297;52.008;4.576;2024-03-02T02:37:39;45376.47;;;-143.47;98.59
35121;BME280;21297;52.008;4.576;2024-03-02T02:40:24;45388.25;;;-143.47;98.15
35121;BME280;21297;52.008;4.576;2024-03-02T02:43:10;45339.16;;;-143.47;97.57
35121;BME280;21297;52.008;4.576;2024-03-02T02:45:56;45327.38;;;-143.47;97.27
35121;BME280;21297;52.008;4.576;2024-03-02T02:48:41;45319.50;;;-143.47;96.61
35121;BME280;21297;52.008;4.576;2024-03-02T02:51:27;45329.31;;;-143.47;97.69
35121;BME280;21297;52.008;4.576;2024-03-02T02:54:12;45368.63;;;-143.47;98.35
35121;BME280;21297;52.008;4.576;2024-03-02T02:56:58;45352.91;;;-143.47;97.92
35121;BME280;21297;52.008;4.576;2024-03-02T02:59:44;45376.47;;;-143.47;98.46
35121;BME280;21297;52.008;4.576;2024-03-02T03:02:30;45341.13;;;-143.47;97.46
35121;BME280;21297;52.008;4.576;2024-03-02T03:05:16;45431.50;;;-143.47;99.49
35121;BME280;21297;52.008;4.576;2024-03-02T03:08:01;45382.38;;;-143.47;98.45
35121;BME280;21297;52.008;4.576;2024-03-02T03:10:48;45299.84;;;-143.47;97.02
35121;BME280;21297;52.008;4.576;2024-03-02T03:13:33;45282.19;;;-143.47;96.37
35121;BME280;21297;52.008;4.576;2024-03-02T03:16:19;45209.50;;;-143.47;95.58
35121;BME280;21297;52.008;4.576;2024-03-02T03:19:05;45301.81;;;-143.47;96.43
35121;BME280;21297;52.008;4.576;2024-03-02T03:21:50;45278.25;;;-143.47;96.04
35121;BME280;21297;52.008;4.576;2024-03-02T03:24:36;45195.72;;;-143.47;94.22
35121;BME280;21297;52.008;4.576;2024-03-02T03:27:21;45156.44;;;-143.47;92.81
35121;BME280;21297;52.008;4.576;2024-03-02T03:30:07;45176.09;;;-143.47;93.74
35121;BME280;21297;52.008;4.576;2024-03-02T03:32:52;45138.75;;;-143.47;93.02
35121;BME280;21297;52.008;4.576;2024-03-02T03:35:38;45193.78;;;-143.47;93.10
35121;BME280;21297;52.008;4.576;2024-03-02T03:38:24;45105.38;;;-143.47;91.23
35121;BME280;21297;52.008;4.576;2024-03-02T03:41:09;45093.59;;;-143.47;90.19
35121;BME280;21297;52.008;4.576;2024-03-02T03:43:55;45077.88;;;-143.47;90.01
35121;BME280;21297;52.008;4.576;2024-03-02T03:46:40;45089.66;;;-143.47;90.67
35121;BME280;21297;52.008;4.576;2024-03-02T03:49:26;45081.78;;;-143.47;90.19
35121;BME280;21297;52.008;4.576;2024-03-02T03:52:12;45054.28;;;-143.47;89.81
35121;BME280;21297;52.008;4.576;2024-03-02T03:54:57;45046.44;;;-143.47;88.63
35121;BME280;21297;52.008;4.576;2024-03-02T03:57:43;45048.41;;;-143.47;89.22
35121;BME280;21297;52.008;4.576;2024-03-02T04:00:28;45064.13;;;-143.47;88.21
35121;BME280;21297;52.008;4.576;2024-03-02T04:03:14;45038.56;;;-143.47;88.39
35121;BME280;21297;52.008;4.576;2024-03-02T04:05:59;44979.63;;;-143.47;87.50
35121;BME280;21297;52.008;4.576;2024-03-02T04:08:45;45009.09;;;-143.47;87.47
35121;BME280;21297;52.008;4.576;2024-03-02T04:11:30;45011.06;;;-143.47;87.75
35121;BME280;21297;52.008;4.576;2024-03-02T04:14:16;45030.72;;;-143.47;87.38
35121;BME280;21297;52.008;4.576;2024-03-02T04:17:02;45011.06;;;-143.47;87.27
35121;BME280;21297;52.008;4.576;2024-03-02T04:19:47;45044.47;;;-143.47;86.70
35121;BME280;21297;52.008;4.576;2024-03-02T04:22:33;45003.22;;;-143.47;86.83
35121;BME280;21297;52.008;4.576;2024-03-02T04:25:19;45018.94;;;-143.47;86.32
35121;BME280;21297;52.008;4.576;2024-03-02T04:28:05;45007.16;;;-143.47;85.30
35121;BME280;21297;52.008;4.576;2024-03-02T04:30:51;44985.53;;;-143.47;84.49
35121;BME280;21297;52.008;4.576;2024-03-02T04:33:36;45005.19;;;-143.47;85.56
35121;BME280;21297;52.008;4.576;2024-03-02T04:36:22;45015.00;;;-143.47;87.09
35121;BME280;21297;52.008;4.576;2024-03-02T04:39:07;45034.66;;;-143.47;86.69
35121;BME280;21297;52.008;4.576;2024-03-02T04:41:55;44993.38;;;-143.47;86.18
35121;BME280;21297;52.008;4.576;2024-03-02T04:44:40;44971.78;;;-143.47;85.49
35121;BME280;21297;52.008;4.576;2024-03-02T04:47:26;44971.78;;;-143.47;84.41
35121;BME280;21297;52.008;4.576;2024-03-02T04:50:11;44991.44;;;-143.47;84.28
35121;BME280;21297;52.008;4.576;2024-03-02T04:52:57;44979.63;;;-143.47;83.89
35121;BME280;21297;52.008;4.576;2024-03-02T04:55:43;44948.22;;;-143.47;83.50
35121;BME280;21297;52.008;4.576;2024-03-02T04:58:28;44958.03;;;-143.47;83.53
35121;BME280;21297;52.008;4.576;2024-03-02T05:01:14;44971.78;;;-143.47;82.96
35121;BME280;21297;52.008;4.576;2024-03-02T05:04:01;44971.78;;;-143.47;82.23
35121;BME280;21297;52.008;4.576;2024-03-02T05:06:47;44922.66;;;-143.47;82.06
35121;BME280;21297;52.008;4.576;2024-03-02T05:09:37;44950.16;;;-143.47;81.78
35121;BME280;21297;52.008;4.576;2024-03-02T05:12:23;44971.78;;;-143.47;83.20
35121;BME280;21297;52.008;4.576;2024-03-02T05:15:34;44960.00;;;-143.47;82.94
35121;BME280;21297;52.008;4.576;2024-03-02T05:18:20;44987.50;;;-143.47;85.58
35121;BME280;21297;52.008;4.576;2024-03-02T05:21:05;45009.09;;;-143.47;86.35
35121;BME280;21297;52.008;4.576;2024-03-02T05:23:51;45044.47;;;-143.47;88.17
35121;BME280;21297;52.008;4.576;2024-03-02T05:26:36;45040.53;;;-143.47;89.13
35121;BME280;21297;52.008;4.576;2024-03-02T05:29:22;45085.72;;;-143.47;89.59
35121;BME280;21297;52.008;4.576;2024-03-02T05:32:07;45071.97;;;-143.47;90.09
35121;BME280;21297;52.008;4.576;2024-03-02T05:34:53;45083.75;;;-143.47;90.42
35121;BME280;21297;52.008;4.576;2024-03-02T05:37:40;45132.88;;;-143.47;92.10
35121;BME280;21297;52.008;4.576;2024-03-02T05:40:25;45160.38;;;-143.47;92.95
35121;BME280;21297;52.008;4.576;2024-03-02T05:43:12;45180.03;;;-143.47;93.04
35121;BME280;21297;52.008;4.576;2024-03-02T05:45:58;45150.56;;;-143.47;91.68
35121;BME280;21297;52.008;4.576;2024-03-02T05:48:43;45097.50;;;-143.47;90.94
35121;BME280;21297;52.008;4.576;2024-03-02T05:51:29;45070.00;;;-143.47;90.97
35121;BME280;21297;52.008;4.576;2024-03-02T05:54:14;45081.78;;;-143.47;90.21
35121;BME280;21297;52.008;4.576;2024-03-02T05:57:00;45062.16;;;-143.47;89.89
35121;BME280;21297;52.008;4.576;2024-03-02T06:00:02;45070.00;;;-143.47;89.12
35121;BME280;21297;52.008;4.576;2024-03-02T06:02:50;45030.72;;;-143.47;88.33
35121;BME280;21297;52.008;4.576;2024-03-02T06:05:36;45009.09;;;-143.47;86.30
35121;BME280;21297;52.008;4.576;2024-03-02T06:08:21;45011.06;;;-143.47;86.52
35121;BME280;21297;52.008;4.576;2024-03-02T06:11:07;44995.34;;;-143.47;86.09
35121;BME280;21297;52.008;4.576;2024-03-02T06:13:52;45020.91;;;-143.47;86.29
35121;BME280;21297;52.008;4.576;2024-03-02T06:16:38;45011.06;;;-143.47;86.34
35121;BME280;21297;52.008;4.576;2024-03-02T06:19:24;45030.72;;;-143.47;87.26
35121;BME280;21297;52.008;4.576;2024-03-02T06:22:09;45018.94;;;-143.47;86.48
35121;BME280;21297;52.008;4.576;2024-03-02T06:24:55;45018.94;;;-143.47;86.98
35121;BME280;21297;52.008;4.576;2024-03-02T06:27:41;44991.44;;;-143.47;86.76
35121;BME280;21297;52.008;4.576;2024-03-02T06:30:27;45060.19;;;-143.47;87.99
35121;BME280;21297;52.008;4.576;2024-03-02T06:33:12;45050.34;;;-143.47;87.67
35121;BME280;21297;52.008;4.576;2024-03-02T06:35:58;45015.00;;;-143.47;87.36
35121;BME280;21297;52.008;4.576;2024-03-02T06:38:43;44979.63;;;-143.47;86.73
35121;BME280;21297;52.008;4.576;2024-03-02T06:41:29;45011.06;;;-143.47;86.16
35121;BME280;21297;52.008;4.576;2024-03-02T06:44:15;44985.53;;;-143.47;86.49
35121;BME280;21297;52.008;4.576;2024-03-02T06:47:00;45024.81;;;-143.47;86.78
35121;BME280;21297;52.008;4.576;2024-03-02T06:49:46;45011.06;;;-143.47;86.31
35121;BME280;21297;52.008;4.576;2024-03-02T06:52:31;45001.25;;;-143.47;86.50
35121;BME280;21297;52.008;4.576;2024-03-02T06:55:17;44975.72;;;-143.47;86.04
35121;BME280;21297;52.008;4.576;2024-03-02T06:58:02;45005.19;;;-143.47;86.36
35121;BME280;21297;52.008;4.576;2024-03-02T07:00:48;45034.66;;;-143.47;86.66
35121;BME280;21297;52.008;4.576;2024-03-02T07:03:34;45046.44;;;-143.47;86.94
35121;BME280;21297;52.008;4.576;2024-03-02T07:06:19;45056.25;;;-143.47;87.33
35121;BME280;21297;52.008;4.576;2024-03-02T07:09:05;45018.94;;;-143.47;87.07
35121;BME280;21297;52.008;4.576;2024-03-02T07:11:50;45015.00;;;-143.47;87.90
35121;BME280;21297;52.008;4.576;2024-03-02T07:14:36;45015.00;;;-143.47;87.16
35121;BME280;21297;52.008;4.576;2024-03-02T07:17:40;45048.41;;;-143.47;87.67
35121;BME280;21297;52.008;4.576;2024-03-02T07:20:25;45034.66;;;-143.47;87.53
35121;BME280;21297;52.008;4.576;2024-03-02T07:23:11;45018.94;;;-143.47;87.34
35121;BME280;21297;52.008;4.576;2024-03-02T07:25:57;45018.94;;;-143.47;86.34
35121;BME280;21297;52.008;4.576;2024-03-02T07:28:42;45007.16;;;-143.47;85.51
35121;BME280;21297;52.008;4.576;2024-03-02T07:31:29;44967.84;;;-143.47;84.58
35121;BME280;21297;52.008;4.576;2024-03-02T07:34:15;44991.44;;;-143.47;83.80
35121;BME280;21297;52.008;4.576;2024-03-02T07:37:00;44989.47;;;-143.47;83.95
35121;BME280;21297;52.008;4.576;2024-03-02T07:39:46;44944.28;;;-143.47;83.32
35121;BME280;21297;52.008;4.576;2024-03-02T07:42:32;44948.22;;;-143.47;82.59
35121;BME280;21297;52.008;4.576;2024-03-02T07:45:17;44963.94;;;-143.47;81.24
35121;BME280;21297;52.008;4.576;2024-03-02T07:48:03;44910.88;;;-143.47;80.08
35121;BME280;21297;52.008;4.576;2024-03-02T07:50:51;44910.88;;;-143.47;79.58
35121;BME280;21297;52.008;4.576;2024-03-02T07:53:36;44928.56;;;-143.47;79.49
35121;BME280;21297;52.008;4.576;2024-03-02T07:56:22;44895.16;;;-143.47;78.53
35121;BME280;21297;52.008;4.576;2024-03-02T07:59:08;44903.03;;;-143.47;78.04
35121;BME280;21297;52.008;4.576;2024-03-02T08:01:53;44893.22;;;-143.47;77.48
35121;BME280;21297;52.008;4.576;2024-03-02T08:04:40;44920.72;;;-143.47;76.20
35121;BME280;21297;52.008;4.576;2024-03-02T08:07:26;44901.06;;;-143.47;76.67
35121;BME280;21297;52.008;4.576;2024-03-02T08:10:12;44920.72;;;-143.47;77.11
35121;BME280;21297;52.008;4.576;2024-03-02T08:12:57;44897.13;;;-143.47;77.38
35121;BME280;21297;52.008;4.576;2024-03-02T08:15:43;44916.78;;;-143.47;77.12
35121;BME280;21297;52.008;4.576;2024-03-02T08:18:29;44924.63;;;-143.47;77.95
35121;BME280;21297;52.008;4.576;2024-03-02T08:21:14;44903.03;;;-143.47;77.40
35121;BME280;21297;52.008;4.576;2024-03-02T08:24:00;44924.63;;;-143.47;77.60
35121;BME280;21297;52.008;4.576;2024-03-02T08:26:46;44912.84;;;-143.47;76.73
35121;BME280;21297;52.008;4.576;2024-03-02T08:29:31;44897.13;;;-143.47;76.29
35121;BME280;21297;52.008;4.576;2024-03-02T08:32:17;44877.50;;;-143.47;76.06
35121;BME280;21297;52.008;4.576;2024-03-02T08:35:03;44875.53;;;-143.47;74.45
35121;BME280;21297;52.008;4.576;2024-03-02T08:37:48;44889.28;;;-143.47;74.36
35121;BME280;21297;52.008;4.576;2024-03-02T08:40:34;44877.50;;;-143.47;73.81
35121;BME280;21297;52.008;4.576;2024-03-02T08:43:20;44883.38;;;-143.47;73.28
35121;BME280;21297;52.008;4.576;2024-03-02T08:46:05;44850.00;;;-143.47;73.34
35121;BME280;21297;52.008;4.576;2024-03-02T08:48:51;44869.63;;;-143.47;71.91
35121;BME280;21297;52.008;4.576;2024-03-02T08:51:37;44855.88;;;-143.47;71.73
35121;BME280;21297;52.008;4.576;2024-03-02T08:54:22;44863.75;;;-143.47;71.76
35121;BME280;21297;52.008;4.576;2024-03-02T08:57:08;44840.16;;;-143.47;70.45
35121;BME280;21297;52.008;4.576;2024-03-02T08:59:53;44853.91;;;-143.47;69.74
35121;BME280;21297;52.008;4.576;2024-03-02T09:02:39;44887.31;;;-143.47;70.35
35121;BME280;21297;52.008;4.576;2024-03-02T09:05:24;44842.13;;;-143.47;68.98
35121;BME280;21297;52.008;4.576;2024-03-02T09:08:10;44834.28;;;-143.47;69.01
35121;BME280;21297;52.008;4.576;2024-03-02T09:10:56;44846.06;;;-143.47;67.18
35121;BME280;21297;52.008;4.576;2024-03-02T09:13:41;44826.41;;;-143.47;67.19
35121;BME280;21297;52.008;4.576;2024-03-02T09:16:28;44844.09;;;-143.47;67.07
35121;BME280;21297;52.008;4.576;2024-03-02T09:19:16;44826.41;;;-143.47;66.30
35121;BME280;21297;52.008;4.576;2024-03-02T09:22:01;44851.94;;;-143.47;64.77
35121;BME280;21297;52.008;4.576;2024-03-02T09:24:48;44832.31;;;-143.47;65.14
35121;BME280;21297;52.008;4.576;2024-03-02T09:27:37;44842.13;;;-143.47;65.15
35121;BME280;21297;52.008;4.576;2024-03-02T09:30:23;44812.66;;;-143.47;64.35
35121;BME280;21297;52.008;4.576;2024-03-02T09:33:08;44828.38;;;-143.47;63.84
35121;BME280;21297;52.008;4.576;2024-03-02T09:35:54;44818.56;;;-143.47;62.84
35121;BME280;21297;52.008;4.576;2024-03-02T09:38:39;44834.28;;;-143.47;62.73
35121;BME280;21297;52.008;4.576;2024-03-02T09:41:25;44826.41;;;-143.47;62.53
35121;BME280;21297;52.008;4.576;2024-03-02T09:44:11;44830.34;;;-143.47;61.51
35121;BME280;21297;52.008;4.576;2024-03-02T09:46:56;44816.59;;;-143.47;62.09
35121;BME280;21297;52.008;4.576;2024-03-02T09:49:42;44820.53;;;-143.47;61.30
35121;BME280;21297;52.008;4.576;2024-03-02T09:52:28;44802.84;;;-143.47;60.76
35121;BME280;21297;52.008;4.576;2024-03-02T09:55:15;44806.78;;;-143.47;60.41
35121;BME280;21297;52.008;4.576;2024-03-02T09:58:01;44798.91;;;-143.47;60.81
35121;BME280;21297;52.008;4.576;2024-03-02T10:00:46;44812.66;;;-143.47;60.07
35121;BME280;21297;52.008;4.576;2024-03-02T10:03:33;44802.84;;;-143.47;62.04
35121;BME280;21297;52.008;4.576;2024-03-02T10:09:04;44798.91;;;-143.47;59.98
35121;BME280;21297;52.008;4.576;2024-03-02T10:11:50;44793.03;;;-143.47;59.00
35121;BME280;21297;52.008;4.576;2024-03-02T10:14:35;44800.88;;;-143.47;59.63
35121;BME280;21297;52.008;4.576;2024-03-02T10:17:21;44791.06;;;-143.47;61.34
35121;BME280;21297;52.008;4.576;2024-03-02T10:20:22;44816.59;;;-143.47;61.28
35121;BME280;21297;52.008;4.576;2024-03-02T10:23:09;44795.00;;;-143.47;58.35
35121;BME280;21297;52.008;4.576;2024-03-02T10:25:55;44824.44;;;-143.47;57.48
35121;BME280;21297;52.008;4.576;2024-03-02T10:28:45;44789.09;;;-143.47;56.15
35121;BME280;21297;52.008;4.576;2024-03-02T10:31:32;44802.84;;;-143.47;57.25
35121;BME280;21297;52.008;4.576;2024-03-02T10:34:18;44783.19;;;-143.47;55.65
35121;BME280;21297;52.008;4.576;2024-03-02T10:37:03;44781.22;;;-143.47;56.13
35121;BME280;21297;52.008;4.576;2024-03-02T10:39:51;44763.56;;;-143.47;55.58
35121;BME280;21297;52.008;4.576;2024-03-02T10:42:37;44791.06;;;-143.47;55.30
35121;BME280;21297;52.008;4.576;2024-03-02T10:45:23;44769.44;;;-143.47;55.67
35121;BME280;21297;52.008;4.576;2024-03-02T10:48:09;44783.19;;;-143.47;55.91
35121;BME280;21297;52.008;4.576;2024-03-02T10:50:55;44761.59;;;-143.47;56.50
35121;BME280;21297;52.008;4.576;2024-03-02T10:53:43;44779.28;;;-143.47;54.46
35121;BME280;21297;52.008;4.576;2024-03-02T10:56:32;44785.16;;;-143.47;56.61
35121;BME280;21297;52.008;4.576;2024-03-02T11:02:06;44796.94;;;-143.47;53.86
35121;BME280;21297;52.008;4.576;2024-03-02T11:04:54;44785.16;;;-143.47;55.77
35121;BME280;21297;52.008;4.576;2024-03-02T11:07:40;44732.13;;;-143.47;52.60
35121;BME280;21297;52.008;4.576;2024-03-02T11:10:29;44785.16;;;-143.47;52.79
35121;BME280;21297;52.008;4.576;2024-03-02T11:13:22;44755.69;;;-143.47;53.43
35121;BME280;21297;52.008;4.576;2024-03-02T11:16:12;44749.81;;;-143.47;52.29
35121;BME280;21297;52.008;4.576;2024-03-02T11:19:04;44767.47;;;-143.47;52.20
35121;BME280;21297;52.008;4.576;2024-03-02T11:21:50;44785.16;;;-143.47;52.26
35121;BME280;21297;52.008;4.576;2024-03-02T11:24:37;44761.59;;;-143.47;50.81
35121;BME280;21297;52.008;4.576;2024-03-02T11:33:25;44759.63;;;-143.47;50.18
35121;BME280;21297;52.008;4.576;2024-03-02T11:36:12;44785.16;;;-143.47;49.86
35121;BME280;21297;52.008;4.576;2024-03-02T11:38:58;44738.03;;;-143.47;51.07
35121;BME280;21297;52.008;4.576;2024-03-02T11:41:43;44741.94;;;-143.47;50.99
35121;BME280;21297;52.008;4.576;2024-03-02T11:44:32;44739.97;;;-143.47;51.31
35121;BME280;21297;52.008;4.576;2024-03-02T11:47:17;44759.63;;;-143.47;49.53
35121;BME280;21297;52.008;4.576;2024-03-02T11:50:03;44759.63;;;-143.47;48.92
35121;BME280;21297;52.008;4.576;2024-03-02T11:52:52;44761.59;;;-143.47;49.50
35121;BME280;21297;52.008;4.576;2024-03-02T11:55:38;44726.22;;;-143.47;50.16
35121;BME280;21297;52.008;4.576;2024-03-02T11:58:24;44743.91;;;-143.47;49.68
35121;BME280;21297;52.008;4.576;2024-03-02T12:01:12;44743.91;;;-143.47;49.15
35121;BME280;21297;52.008;4.576;2024-03-02T12:03:58;44708.56;;;-143.47;48.98
35121;BME280;21297;52.008;4.576;2024-03-02T12:06:45;44743.91;;;-143.47;49.67
35121;BME280;21297;52.008;4.576;2024-03-02T12:09:32;44724.28;;;-143.47;47.86
35121;BME280;21297;52.008;4.576;2024-03-02T12:12:17;44736.06;;;-143.47;48.73
35121;BME280;21297;52.008;4.576;2024-03-02T12:15:06;44759.63;;;-143.47;48.48
35121;BME280;21297;52.008;4.576;2024-03-02T12:17:55;44728.19;;;-143.47;48.03
35121;BME280;21297;52.008;4.576;2024-03-02T12:20:41;44753.72;;;-143.47;48.04
35121;BME280;21297;52.008;4.576;2024-03-02T12:23:26;44720.34;;;-143.47;47.57
35121;BME280;21297;52.008;4.576;2024-03-02T12:26:12;44724.28;;;-143.47;47.91
35121;BME280;21297;52.008;4.576;2024-03-02T12:28:57;44710.53;;;-143.47;47.91
35121;BME280;21297;52.008;4.576;2024-03-02T12:31:43;44730.16;;;-143.47;48.48
35121;BME280;21297;52.008;4.576;2024-03-02T12:34:32;44743.91;;;-143.47;49.74
35121;BME280;21297;52.008;4.576;2024-03-02T12:37:18;44696.78;;;-143.47;49.52
35121;BME280;21297;52.008;4.576;2024-03-02T12:40:03;44728.19;;;-143.47;48.12
35121;BME280;21297;52.008;4.576;2024-03-02T12:42:50;44720.34;;;-143.47;48.38
35121;BME280;21297;52.008;4.576;2024-03-02T12:45:36;44736.06;;;-143.47;49.06
35121;BME280;21297;52.008;4.576;2024-03-02T12:48:21;44730.16;;;-143.47;48.12
35121;BME280;21297;52.008;4.576;2024-03-02T12:51:07;44736.06;;;-143.47;48.28
35121;BME280;21297;52.008;4.576;2024-03-02T12:53:54;44736.06;;;-143.47;48.84
35121;BME280;21297;52.008;4.576;2024-03-02T12:56:40;44728.19;;;-143.47;48.48
35121;BME280;21297;52.008;4.576;2024-03-02T12:59:30;44743.91;;;-143.47;49.15
35121;BME280;21297;52.008;4.576;2024-03-02T13:02:17;44743.91;;;-143.47;47.99
35121;BME280;21297;52.008;4.576;2024-03-02T13:05:03;44726.22;;;-143.47;46.90
35121;BME280;21297;52.008;4.576;2024-03-02T13:07:49;44716.41;;;-143.47;46.55
35121;BME280;21297;52.008;4.576;2024-03-02T13:10:34;44743.91;;;-143.47;45.14
35121;BME280;21297;52.008;4.576;2024-03-02T13:13:20;44749.81;;;-143.47;47.50
35121;BME280;21297;52.008;4.576;2024-03-02T13:16:09;44718.38;;;-143.47;47.38
35121;BME280;21297;52.008;4.576;2024-03-02T13:18:55;44767.47;;;-143.47;46.35
35121;BME280;21297;52.008;4.576;2024-03-02T13:21:41;44712.47;;;-143.47;48.01
35121;BME280;21297;52.008;4.576;2024-03-02T13:24:27;44747.84;;;-143.47;49.48
35121;BME280;21297;52.008;4.576;2024-03-02T13:27:15;44692.84;;;-143.47;47.80
35121;BME280;21297;52.008;4.576;2024-03-02T13:30:02;44738.03;;;-143.47;47.57
35121;BME280;21297;52.008;4.576;2024-03-02T13:32:48;44736.06;;;-143.47;47.61
35121;BME280;21297;52.008;4.576;2024-03-02T13:35:33;44739.97;;;-143.47;48.99
35121;BME280;21297;52.008;4.576;2024-03-02T13:38:19;44716.41;;;-143.47;46.67
35121;BME280;21297;52.008;4.576;2024-03-02T13:41:05;44739.97;;;-143.47;47.78
35121;BME280;21297;52.008;4.576;2024-03-02T13:43:50;44730.16;;;-143.47;47.60
35121;BME280;21297;52.008;4.576;2024-03-02T13:46:36;44712.47;;;-143.47;47.94
35121;BME280;21297;52.008;4.576;2024-03-02T13:49:21;44743.91;;;-143.47;47.30
35121;BME280;21297;52.008;4.576;2024-03-02T13:52:08;44712.47;;;-143.47;48.07
35121;BME280;21297;52.008;4.576;2024-03-02T13:54:58;44684.97;;;-143.47;47.78
35121;BME280;21297;52.008;4.576;2024-03-02T13:57:44;44730.16;;;-143.47;47.80
35121;BME280;21297;52.008;4.576;2024-03-02T14:00:29;44692.84;;;-143.47;48.10
35121;BME280;21297;52.008;4.576;2024-03-02T14:03:15;44720.34;;;-143.47;48.29
35121;BME280;21297;52.008;4.576;2024-03-02T14:06:01;44714.44;;;-143.47;47.84
35121;BME280;21297;52.008;4.576;2024-03-02T14:08:46;44724.28;;;-143.47;51.27
35121;BME280;21297;52.008;4.576;2024-03-02T14:11:34;44736.06;;;-143.47;49.10
35121;BME280;21297;52.008;4.576;2024-03-02T14:14:19;44738.03;;;-143.47;49.24
35121;BME280;21297;52.008;4.576;2024-03-02T14:17:05;44704.63;;;-143.47;49.33
35121;BME280;21297;52.008;4.576;2024-03-02T14:19:51;44661.41;;;-143.47;50.38
35121;BME280;21297;52.008;4.576;2024-03-02T14:22:39;44720.34;;;-143.47;49.27
35121;BME280;21297;52.008;4.576;2024-03-02T14:25:24;44692.84;;;-143.47;49.84
35121;BME280;21297;52.008;4.576;2024-03-02T14:28:10;44696.78;;;-143.47;49.32